Time;durP1;ratioP1;P1;durP2;ratioP2;P2;SDS_P1;SDS_P2;PMS_P1;PMS_P2;Temp;Humidity;BMP_temperature;BMP_pressure;BME280_temperature;BME280_humidity;BME280_pressure;Samples;Min_cycle;Max_cycle;Signal;HPM_P1;HPM_P2
2023/08/26 00:01:15;;;;;;;27.27;16.10;;;;;;;;;;5028466;28;20045;-65
2023/08/26 00:03:41;;;;;;;28.47;17.60;;;;;;;;;;5029518;28;20033;-65
2023/08/26 00:06:07;;;;;;;41.97;22.00;;;;;;;;;;5029292;28;20045;-65
2023/08/26 00:08:33;;;;;;;37.33;19.77;;;;;;;;;;5029162;28;20041;-65
2023/08/26 00:10:59;;;;;;;42.97;23.50;;;;;;;;;;5029271;28;20388;-65
2023/08/26 00:13:25;;;;;;;40.77;20.70;;;;;;;;;;5028830;28;20037;-65
2023/08/26 00:15:51;;;;;;;41.03;22.07;;;;;;;;;;5028978;28;20518;-65
2023/08/26 00:18:17;;;;;;;33.57;19.53;;;;;;;;;;5029045;28;20049;-65
2023/08/26 00:20:43;;;;;;;34.13;18.87;;;;;;;;;;5028487;28;20504;-65
2023/08/26 00:23:09;;;;;;;50.97;24.20;;;;;;;;;;5028782;28;20110;-65
2023/08/26 00:25:35;;;;;;;39.33;21.00;;;;;;;;;;5029161;28;20049;-65
2023/08/26 00:28:02;;;;;;;28.30;17.93;;;;;;;;;;5028849;28;20041;-65
2023/08/26 00:30:28;;;;;;;38.33;21.13;;;;;;;;;;5029010;28;20050;-65
2023/08/26 00:32:54;;;;;;;52.70;24.30;;;;;;;;;;5028665;28;20065;-65
2023/08/26 00:35:20;;;;;;;37.80;21.47;;;;;;;;;;5028612;28;20056;-65
2023/08/26 00:37:46;;;;;;;41.00;22.63;;;;;;;;;;5028825;28;20053;-65
2023/08/26 00:40:12;;;;;;;45.03;23.10;;;;;;;;;;5028521;28;20511;-65
2023/08/26 00:42:38;;;;;;;42.00;20.97;;;;;;;;;;5027091;28;20403;-65
2023/08/26 00:45:06;;;;;;;26.73;17.20;;;;;;;;;;5027609;28;20423;-65
2023/08/26 00:47:32;;;;;;;31.70;19.30;;;;;;;;;;5028088;28;20046;-65
2023/08/26 00:49:58;;;;;;;49.40;23.20;;;;;;;;;;5028336;28;20075;-65
2023/08/26 00:52:24;;;;;;;52.13;23.20;;;;;;;;;;5028312;28;20103;-65
2023/08/26 00:54:50;;;;;;;40.50;19.73;;;;;;;;;;5028430;28;20049;-65
2023/08/26 00:57:15;;;;;;;26.43;17.10;;;;;;;;;;5028388;28;20067;-65
2023/08/26 00:59:42;;;;;;;29.97;18.47;;;;;;;;;;5028192;28;20083;-65
2023/08/26 01:02:08;;;;;;;25.50;17.43;;;;;;;;;;5028284;28;20095;-65
2023/08/26 01:04:34;;;;;;;21.50;14.80;;;;;;;;;;5028174;28;20056;-65
2023/08/26 01:07:00;;;;;;;39.23;21.17;;;;;;;;;;5028079;28;20514;-65
2023/08/26 01:09:26;;;;;;;23.60;15.17;;;;;;;;;;5027825;28;20088;-65
2023/08/26 01:11:52;;;;;;;28.93;16.30;;;;;;;;;;5028706;28;20394;-65
2023/08/26 01:14:32;;;;;;;25.40;15.07;;;;;;;;;;5027388;28;20052;-65
2023/08/26 01:16:58;;;;;;;22.10;15.50;;;;;;;;;;5008501;28;20136;-65
2023/08/26 01:19:32;;;;;;;22.77;15.50;;;;;;;;;;5008643;28;20413;-65
2023/08/26 01:22:01;;;;;;;29.87;16.93;;;;;;;;;;5008414;28;20196;-65
2023/08/26 01:24:27;;;;;;;24.53;14.43;;;;;;;;;;5016086;28;20042;-65
2023/08/26 01:26:53;;;;;;;23.40;13.97;;;;;;;;;;5027959;28;20037;-65
2023/08/26 01:29:19;;;;;;;17.83;13.07;;;;;;;;;;5028293;28;20049;-65
2023/08/26 01:31:45;;;;;;;24.03;14.37;;;;;;;;;;5028082;28;20052;-65
2023/08/26 01:34:18;;;;;;;26.47;16.43;;;;;;;;;;5027913;28;20038;-65
2023/08/26 01:36:45;;;;;;;29.57;16.93;;;;;;;;;;5027741;28;20072;-65
2023/08/26 01:39:13;;;;;;;29.73;17.13;;;;;;;;;;5028322;28;20049;-65
2023/08/26 01:41:42;;;;;;;28.27;15.20;;;;;;;;;;5027839;28;20499;-65
2023/08/26 01:44:08;;;;;;;18.83;13.10;;;;;;;;;;5027874;28;20050;-65
2023/08/26 01:46:36;;;;;;;26.10;14.00;;;;;;;;;;5027427;28;20052;-65
2023/08/26 01:49:02;;;;;;;23.60;15.43;;;;;;;;;;5008182;28;20519;-65
2023/08/26 01:51:29;;;;;;;22.37;14.90;;;;;;;;;;5008153;28;20046;-65
2023/08/26 01:53:55;;;;;;;32.63;17.47;;;;;;;;;;5008494;28;20038;-65
2023/08/26 01:56:21;;;;;;;30.97;17.60;;;;;;;;;;5010968;28;20142;-65
2023/08/26 01:58:47;;;;;;;20.63;12.67;;;;;;;;;;5029435;28;20161;-65
2023/08/26 02:01:12;;;;;;;16.60;12.20;;;;;;;;;;5031929;28;20053;-65
2023/08/26 02:03:38;;;;;;;20.53;13.13;;;;;;;;;;5031703;28;20555;-65
2023/08/26 02:06:04;;;;;;;19.27;11.37;;;;;;;;;;5031735;28;20052;-66
2023/08/26 02:08:31;;;;;;;18.50;12.07;;;;;;;;;;5032042;28;20371;-65
2023/08/26 02:10:57;;;;;;;17.63;11.50;;;;;;;;;;5031652;28;20510;-65
2023/08/26 02:13:23;;;;;;;18.03;11.47;;;;;;;;;;5031272;28;20373;-66
2023/08/26 02:15:49;;;;;;;20.13;12.13;;;;;;;;;;5032004;28;20029;-65
2023/08/26 02:18:15;;;;;;;16.43;10.30;;;;;;;;;;5031198;28;20064;-65
2023/08/26 02:20:44;;;;;;;14.93;11.93;;;;;;;;;;5031477;28;20128;-65
2023/08/26 02:23:11;;;;;;;15.70;10.23;;;;;;;;;;5031684;28;20482;-65
2023/08/26 02:25:38;;;;;;;17.87;11.43;;;;;;;;;;5031266;28;20077;-65
2023/08/26 02:28:04;;;;;;;22.30;14.27;;;;;;;;;;5031607;28;20080;-65
2023/08/26 02:30:31;;;;;;;21.00;12.07;;;;;;;;;;5031607;28;20160;-65
2023/08/26 02:32:57;;;;;;;24.97;14.77;;;;;;;;;;5031595;28;20104;-65
2023/08/26 02:35:23;;;;;;;22.20;13.63;;;;;;;;;;5030988;28;20041;-65
2023/08/26 02:37:49;;;;;;;30.97;16.13;;;;;;;;;;5030970;28;20060;-65
2023/08/26 02:40:15;;;;;;;22.20;12.60;;;;;;;;;;5031535;28;20467;-65
2023/08/26 02:42:41;;;;;;;23.10;14.80;;;;;;;;;;5031209;28;20522;-65
2023/08/26 02:45:07;;;;;;;20.27;12.47;;;;;;;;;;5031375;28;20140;-65
2023/08/26 02:47:33;;;;;;;27.53;14.10;;;;;;;;;;5030515;28;20033;-65
2023/08/26 02:49:59;;;;;;;29.40;14.57;;;;;;;;;;5031072;28;20060;-65
2023/08/26 02:52:25;;;;;;;23.63;13.97;;;;;;;;;;5031175;28;20128;-65
2023/08/26 02:54:51;;;;;;;24.77;13.23;;;;;;;;;;5030737;28;20046;-65
2023/08/26 02:57:18;;;;;;;19.97;14.93;;;;;;;;;;5030903;28;20423;-65
2023/08/26 02:59:43;;;;;;;26.43;15.83;;;;;;;;;;5029391;28;20042;-65
2023/08/26 03:02:09;;;;;;;23.80;15.23;;;;;;;;;;5030657;28;20045;-65
2023/08/26 03:04:35;;;;;;;21.90;14.87;;;;;;;;;;5030496;28;20042;-65
2023/08/26 03:07:02;;;;;;;29.57;18.57;;;;;;;;;;5030715;28;20034;-65
2023/08/26 03:09:28;;;;;;;30.37;15.83;;;;;;;;;;5030526;28;20033;-65
2023/08/26 03:11:55;;;;;;;22.00;14.10;;;;;;;;;;5030507;28;20089;-65
2023/08/26 03:14:21;;;;;;;36.70;17.70;;;;;;;;;;5030614;28;20056;-65
2023/08/26 03:16:47;;;;;;;28.00;16.37;;;;;;;;;;5030629;28;20045;-65
2023/08/26 03:19:13;;;;;;;34.13;18.30;;;;;;;;;;5030958;28;20044;-65
2023/08/26 03:21:39;;;;;;;43.43;20.00;;;;;;;;;;5030402;28;20041;-65
2023/08/26 03:24:05;;;;;;;26.00;16.27;;;;;;;;;;5030222;28;20492;-65
2023/08/26 03:26:31;;;;;;;37.73;18.87;;;;;;;;;;5030231;28;20085;-65
2023/08/26 03:28:57;;;;;;;35.93;19.57;;;;;;;;;;5030171;28;20092;-65
2023/08/26 03:31:23;;;;;;;32.23;17.50;;;;;;;;;;5029631;28;20095;-65
2023/08/26 03:33:49;;;;;;;32.87;18.43;;;;;;;;;;5029917;28;20037;-65
2023/08/26 03:36:15;;;;;;;35.80;18.60;;;;;;;;;;5030175;28;20057;-65
2023/08/26 03:38:41;;;;;;;37.40;20.60;;;;;;;;;;5029968;28;20496;-65
2023/08/26 03:41:07;;;;;;;29.30;18.70;;;;;;;;;;5030585;28;20045;-65
2023/08/26 03:43:33;;;;;;;27.03;16.63;;;;;;;;;;5029788;28;20042;-65
2023/08/26 03:46:00;;;;;;;28.83;18.50;;;;;;;;;;5029835;28;20124;-65
2023/08/26 03:48:26;;;;;;;25.60;16.80;;;;;;;;;;5030017;28;20080;-65
2023/08/26 03:50:53;;;;;;;35.40;19.87;;;;;;;;;;5030327;28;20754;-65
2023/08/26 03:53:19;;;;;;;27.43;18.50;;;;;;;;;;5029808;28;20514;-65
2023/08/26 03:55:45;;;;;;;49.53;24.67;;;;;;;;;;5029462;28;20514;-65
2023/08/26 03:58:11;;;;;;;51.60;24.53;;;;;;;;;;5029826;28;20049;-65
2023/08/26 04:00:38;;;;;;;57.37;25.83;;;;;;;;;;5029802;28;20411;-65
2023/08/26 04:03:05;;;;;;;29.70;18.37;;;;;;;;;;5029456;28;20495;-65
2023/08/26 04:05:31;;;;;;;50.90;25.13;;;;;;;;;;5028906;28;20103;-65
2023/08/26 04:07:57;;;;;;;31.57;19.13;;;;;;;;;;5029011;28;20085;-65
2023/08/26 04:10:23;;;;;;;25.63;16.93;;;;;;;;;;5029836;28;20049;-65
2023/08/26 04:12:49;;;;;;;35.53;20.23;;;;;;;;;;5029644;28;20041;-65
2023/08/26 04:15:15;;;;;;;48.40;24.73;;;;;;;;;;5029734;28;20338;-65
2023/08/26 04:17:41;;;;;;;39.87;21.47;;;;;;;;;;5029158;28;20102;-65
2023/08/26 04:20:08;;;;;;;31.53;17.53;;;;;;;;;;5029481;28;20037;-65
2023/08/26 04:22:34;;;;;;;39.90;21.17;;;;;;;;;;5028090;28;20049;-65
2023/08/26 04:25:00;;;;;;;31.43;16.63;;;;;;;;;;5028963;28;20045;-65
2023/08/26 04:27:27;;;;;;;32.80;20.13;;;;;;;;;;5028874;28;20044;-65
2023/08/26 04:29:53;;;;;;;30.27;19.20;;;;;;;;;;5029228;28;20045;-65
2023/08/26 04:32:19;;;;;;;29.57;18.33;;;;;;;;;;5029416;28;20084;-65
2023/08/26 04:34:46;;;;;;;30.67;19.77;;;;;;;;;;5028665;28;20084;-65
2023/08/26 04:37:12;;;;;;;35.13;19.47;;;;;;;;;;5028664;28;20053;-65
2023/08/26 04:39:38;;;;;;;25.87;18.07;;;;;;;;;;5028991;28;20084;-65
2023/08/26 04:42:04;;;;;;;35.63;20.43;;;;;;;;;;5028996;28;20136;-65
2023/08/26 04:44:30;;;;;;;39.47;21.53;;;;;;;;;;5028663;28;20041;-65
2023/08/26 04:46:56;;;;;;;32.33;20.70;;;;;;;;;;5028564;28;20049;-65
2023/08/26 04:49:22;;;;;;;33.17;20.63;;;;;;;;;;5028791;28;20437;-65
2023/08/26 04:51:53;;;;;;;30.43;19.27;;;;;;;;;;5028616;28;20381;-65
2023/08/26 04:54:19;;;;;;;35.57;22.00;;;;;;;;;;5027985;28;20056;-65
2023/08/26 04:56:45;;;;;;;33.20;19.77;;;;;;;;;;5028463;28;20041;-65
2023/08/26 04:59:11;;;;;;;32.37;20.47;;;;;;;;;;5028758;28;20057;-65
2023/08/26 05:01:37;;;;;;;38.40;21.53;;;;;;;;;;5028439;28;20103;-65
2023/08/26 05:04:03;;;;;;;30.47;19.23;;;;;;;;;;5027905;28;20056;-65
2023/08/26 05:06:29;;;;;;;26.57;17.70;;;;;;;;;;5028611;28;20451;-65
2023/08/26 05:08:55;;;;;;;26.53;16.37;;;;;;;;;;5028242;28;20119;-65
2023/08/26 05:11:21;;;;;;;26.30;16.03;;;;;;;;;;5028383;28;20095;-65
2023/08/26 05:13:47;;;;;;;25.53;15.07;;;;;;;;;;5028094;28;20037;-65
2023/08/26 05:16:13;;;;;;;20.87;14.60;;;;;;;;;;5027996;28;20124;-65
2023/08/26 05:18:39;;;;;;;24.53;15.07;;;;;;;;;;5027617;28;20428;-65
2023/08/26 05:21:05;;;;;;;27.97;15.40;;;;;;;;;;5028097;28;20045;-65
2023/08/26 05:23:31;;;;;;;31.03;17.67;;;;;;;;;;5027785;28;20049;-65
2023/08/26 05:25:57;;;;;;;31.03;14.73;;;;;;;;;;5028226;28;20598;-65
2023/08/26 05:28:23;;;;;;;25.07;15.17;;;;;;;;;;5025230;28;20073;-65
2023/08/26 05:30:49;;;;;;;26.60;15.20;;;;;;;;;;5027218;28;20363;-65
2023/08/26 05:33:15;;;;;;;27.03;14.47;;;;;;;;;;5028232;28;20403;-65
2023/08/26 05:35:41;;;;;;;19.57;13.63;;;;;;;;;;5014031;28;20077;-65
2023/08/26 05:38:07;;;;;;;30.30;16.27;;;;;;;;;;5008332;28;20390;-65
2023/08/26 05:40:34;;;;;;;26.00;16.00;;;;;;;;;;5008499;28;20121;-65
2023/08/26 05:43:00;;;;;;;21.77;14.60;;;;;;;;;;5008166;28;20049;-65
2023/08/26 05:45:26;;;;;;;30.37;16.47;;;;;;;;;;5016327;28;20614;-65
2023/08/26 05:47:53;;;;;;;29.27;17.90;;;;;;;;;;5027720;28;20479;-65
2023/08/26 05:50:19;;;;;;;34.57;17.40;;;;;;;;;;5028289;28;20419;-65
2023/08/26 05:52:45;;;;;;;27.03;17.20;;;;;;;;;;5027251;28;20044;-65
2023/08/26 05:55:11;;;;;;;29.23;16.13;;;;;;;;;;5027419;28;20049;-65
2023/08/26 05:57:38;;;;;;;22.87;16.27;;;;;;;;;;5027379;28;20049;-65
2023/08/26 06:00:04;;;;;;;28.50;17.87;;;;;;;;;;5027976;28;20052;-65
2023/08/26 06:02:30;;;;;;;29.33;16.80;;;;;;;;;;5027598;28;20044;-65
2023/08/26 06:04:56;;;;;;;31.40;17.53;;;;;;;;;;5026871;28;20152;-65
2023/08/26 06:07:22;;;;;;;27.83;16.77;;;;;;;;;;5027604;28;20044;-64
2023/08/26 06:09:48;;;;;;;26.70;16.80;;;;;;;;;;5027505;28;20521;-65
2023/08/26 06:12:14;;;;;;;29.50;17.67;;;;;;;;;;5027471;28;20068;-64
2023/08/26 06:14:40;;;;;;;27.67;18.00;;;;;;;;;;5027266;28;20052;-64
2023/08/26 06:17:06;;;;;;;26.00;17.33;;;;;;;;;;5027341;28;20049;-64
2023/08/26 06:19:32;;;;;;;30.17;18.67;;;;;;;;;;5027552;28;20041;-64
2023/08/26 06:21:58;;;;;;;28.80;18.57;;;;;;;;;;5027063;28;20037;-64
2023/08/26 06:24:24;;;;;;;24.93;14.97;;;;;;;;;;5027287;28;20067;-64
2023/08/26 06:26:50;;;;;;;26.27;13.67;;;;;;;;;;5027121;28;20431;-64
2023/08/26 06:29:19;;;;;;;24.47;14.30;;;;;;;;;;5027353;28;20045;-64
2023/08/26 06:31:46;;;;;;;24.30;14.03;;;;;;;;;;5027517;28;20037;-64
2023/08/26 06:34:12;;;;;;;18.63;13.83;;;;;;;;;;5027305;28;20052;-64
2023/08/26 06:36:40;;;;;;;22.80;14.43;;;;;;;;;;5027164;28;20057;-64
2023/08/26 06:39:06;;;;;;;19.90;13.23;;;;;;;;;;5027614;28;20136;-64
2023/08/26 06:41:33;;;;;;;20.90;14.53;;;;;;;;;;5010567;28;20132;-64
2023/08/26 06:43:59;;;;;;;21.73;14.47;;;;;;;;;;5027695;28;20066;-64
2023/08/26 06:46:25;;;;;;;22.33;14.70;;;;;;;;;;5029552;28;20513;-64
2023/08/26 06:48:51;;;;;;;19.07;13.93;;;;;;;;;;5030185;28;20041;-64
2023/08/26 06:51:17;;;;;;;23.33;14.63;;;;;;;;;;5030951;28;20045;-64
2023/08/26 06:53:43;;;;;;;24.30;15.93;;;;;;;;;;5030450;28;20092;-64
2023/08/26 06:56:09;;;;;;;24.23;16.33;;;;;;;;;;5031083;28;20042;-64
2023/08/26 06:58:35;;;;;;;23.80;15.83;;;;;;;;;;5030929;28;20053;-65
2023/08/26 07:01:01;;;;;;;28.10;17.20;;;;;;;;;;5030518;28;20072;-64
2023/08/26 07:03:27;;;;;;;22.73;15.07;;;;;;;;;;5030440;28;20041;-64
2023/08/26 07:05:53;;;;;;;21.37;15.87;;;;;;;;;;5030801;28;20041;-64
2023/08/26 07:08:19;;;;;;;20.70;14.77;;;;;;;;;;5030245;28;20053;-64
2023/08/26 07:10:45;;;;;;;19.87;14.13;;;;;;;;;;5030498;28;20103;-63
2023/08/26 07:13:11;;;;;;;22.30;14.67;;;;;;;;;;5030425;28;20492;-64
2023/08/26 07:15:37;;;;;;;19.67;16.03;;;;;;;;;;5029910;28;20398;-64
2023/08/26 07:18:03;;;;;;;24.43;15.33;;;;;;;;;;5030456;28;20455;-64
2023/08/26 07:20:29;;;;;;;19.23;14.00;;;;;;;;;;5029941;28;20125;-64
2023/08/26 07:22:55;;;;;;;15.97;12.97;;;;;;;;;;5029818;28;20123;-64
2023/08/26 07:25:21;;;;;;;23.70;14.33;;;;;;;;;;5029851;28;20578;-63
2023/08/26 07:27:47;;;;;;;18.43;13.23;;;;;;;;;;5030323;28;20124;-63
2023/08/26 07:30:13;;;;;;;17.77;12.47;;;;;;;;;;5030284;28;20048;-63
2023/08/26 07:32:40;;;;;;;17.00;12.03;;;;;;;;;;5029416;28;20049;-63
2023/08/26 07:35:07;;;;;;;17.43;13.23;;;;;;;;;;5029758;28;20049;-63
2023/08/26 07:37:33;;;;;;;20.97;13.43;;;;;;;;;;5029847;28;20107;-63
2023/08/26 07:40:01;;;;;;;20.60;13.80;;;;;;;;;;5029908;28;20054;-63
2023/08/26 07:42:27;;;;;;;20.67;13.97;;;;;;;;;;5029662;28;20049;-63
2023/08/26 07:44:53;;;;;;;16.60;13.30;;;;;;;;;;5029869;28;20037;-63
2023/08/26 07:47:20;;;;;;;21.87;14.97;;;;;;;;;;5029492;28;20042;-63
2023/08/26 07:49:47;;;;;;;25.47;13.23;;;;;;;;;;5029479;28;20045;-63
2023/08/26 07:52:14;;;;;;;19.83;12.63;;;;;;;;;;5029721;28;20045;-62
2023/08/26 07:54:40;;;;;;;16.80;12.33;;;;;;;;;;5029263;28;20045;-63
2023/08/26 07:57:06;;;;;;;18.97;12.30;;;;;;;;;;5028017;28;20046;-63
2023/08/26 07:59:33;;;;;;;15.90;12.50;;;;;;;;;;5009749;28;20757;-63
2023/08/26 08:01:59;;;;;;;15.60;12.53;;;;;;;;;;5019042;28;20145;-63
2023/08/26 08:04:25;;;;;;;21.77;12.57;;;;;;;;;;5042011;28;20113;-63
2023/08/26 08:06:51;;;;;;;14.37;11.50;;;;;;;;;;5039786;28;20069;-63
2023/08/26 08:09:17;;;;;;;16.47;12.27;;;;;;;;;;5028477;28;20041;-63
2023/08/26 08:11:43;;;;;;;17.90;11.70;;;;;;;;;;5029166;28;20076;-63
2023/08/26 08:14:09;;;;;;;15.77;11.23;;;;;;;;;;5045205;28;20388;-63
2023/08/26 08:16:35;;;;;;;15.23;10.47;;;;;;;;;;5037260;28;20072;-63
2023/08/26 08:19:01;;;;;;;14.57;10.00;;;;;;;;;;5033523;28;20036;-62
2023/08/26 08:21:26;;;;;;;12.90;9.13;;;;;;;;;;5048219;28;20060;-63
2023/08/26 08:23:52;;;;;;;18.20;9.37;;;;;;;;;;5048907;28;20064;-63
2023/08/26 08:26:18;;;;;;;16.03;8.70;;;;;;;;;;5027238;28;20072;-62
2023/08/26 08:28:44;;;;;;;12.80;8.77;;;;;;;;;;5028634;28;20492;-61
2023/08/26 08:31:10;;;;;;;14.83;8.47;;;;;;;;;;5028381;28;20099;-61
2023/08/26 08:33:37;;;;;;;14.43;7.63;;;;;;;;;;5032049;28;20040;-61
2023/08/26 08:36:03;;;;;;;16.57;7.97;;;;;;;;;;5033806;28;20128;-61
2023/08/26 08:38:29;;;;;;;12.27;7.30;;;;;;;;;;5027807;28;20053;-61
2023/08/26 08:40:55;;;;;;;11.70;6.97;;;;;;;;;;5033556;28;20052;-61
2023/08/26 08:43:22;;;;;;;13.17;6.67;;;;;;;;;;5044355;28;20049;-61
2023/08/26 08:45:50;;;;;;;14.70;6.83;;;;;;;;;;5027978;28;20049;-61
2023/08/26 08:48:17;;;;;;;14.27;6.43;;;;;;;;;;5027387;28;20041;-61
2023/08/26 08:50:45;;;;;;;9.40;6.33;;;;;;;;;;5027825;28;20047;-61
2023/08/26 08:53:11;;;;;;;13.03;6.33;;;;;;;;;;5027107;28;20057;-61
2023/08/26 08:55:38;;;;;;;12.80;5.47;;;;;;;;;;5028999;28;20041;-61
2023/08/26 08:58:04;;;;;;;9.20;5.37;;;;;;;;;;5046907;28;20118;-62
2023/08/26 09:00:30;;;;;;;13.40;5.20;;;;;;;;;;5047944;28;20048;-61
2023/08/26 09:02:58;;;;;;;12.60;4.80;;;;;;;;;;5038853;28;20088;-61
2023/08/26 09:05:25;;;;;;;12.87;5.10;;;;;;;;;;5027636;28;20045;-61
2023/08/26 09:07:51;;;;;;;13.60;5.17;;;;;;;;;;5027536;28;20049;-61
2023/08/26 09:10:18;;;;;;;11.70;4.73;;;;;;;;;;5027404;28;20060;-61
2023/08/26 09:12:44;;;;;;;11.23;4.43;;;;;;;;;;5027890;28;20050;-61
2023/08/26 09:15:10;;;;;;;10.93;4.97;;;;;;;;;;5028102;28;20053;-61
2023/08/26 09:17:36;;;;;;;11.83;4.43;;;;;;;;;;5027823;28;20104;-61
2023/08/26 09:20:03;;;;;;;8.87;4.13;;;;;;;;;;5026752;28;20518;-61
2023/08/26 09:22:29;;;;;;;11.17;4.00;;;;;;;;;;5026377;28;20041;-61
2023/08/26 09:24:56;;;;;;;8.83;3.13;;;;;;;;;;5028479;28;20415;-61
2023/08/26 09:27:23;;;;;;;9.57;2.70;;;;;;;;;;5027496;28;20063;-61
2023/08/26 09:29:52;;;;;;;9.57;2.60;;;;;;;;;;5027733;28;20080;-61
2023/08/26 09:32:52;;;;;;;10.23;2.30;;;;;;;;;;5042264;28;20045;-61
2023/08/26 09:35:18;;;;;;;7.23;1.90;;;;;;;;;;5014705;28;20115;-61
2023/08/26 09:37:48;;;;;;;9.57;2.47;;;;;;;;;;5026863;28;20424;-62
2023/08/26 09:40:15;;;;;;;6.10;1.93;;;;;;;;;;5027859;28;20124;-61
2023/08/26 09:42:42;;;;;;;5.57;1.67;;;;;;;;;;5026981;28;20145;-61
2023/08/26 09:45:11;;;;;;;5.50;1.43;;;;;;;;;;5027996;28;20132;-61
2023/08/26 09:47:38;;;;;;;7.73;2.07;;;;;;;;;;5027036;28;20041;-61
2023/08/26 09:50:04;;;;;;;10.13;2.20;;;;;;;;;;5027279;28;20045;-61
2023/08/26 09:52:30;;;;;;;3.60;1.40;;;;;;;;;;5025947;28;20054;-61
2023/08/26 09:54:56;;;;;;;7.07;1.80;;;;;;;;;;5027332;28;20048;-61
2023/08/26 09:57:23;;;;;;;6.80;1.70;;;;;;;;;;5027081;28;20052;-62
2023/08/26 09:59:50;;;;;;;8.50;1.80;;;;;;;;;;5032922;28;20142;-61
2023/08/26 10:02:22;;;;;;;5.37;1.53;;;;;;;;;;5026551;28;20053;-61
2023/08/26 10:04:55;;;;;;;6.65;1.50;;;;;;;;;;5029064;28;20045;-61
2023/08/26 10:07:23;;;;;;;5.53;1.43;;;;;;;;;;5047590;28;20118;-61
2023/08/26 10:09:56;;;;;;;6.13;1.63;;;;;;;;;;5027792;28;20562;-61
2023/08/26 10:12:22;;;;;;;;;;;;;;;;;;5040683;28;20530;-60
2023/08/26 10:14:50;;;;;;;4.33;1.57;;;;;;;;;;5040302;28;19983;-62
2023/08/26 10:17:19;;;;;;;5.70;1.97;;;;;;;;;;5046141;28;20053;-61
2023/08/26 10:19:46;;;;;;;5.73;1.70;;;;;;;;;;5010459;28;20158;-62
2023/08/26 10:22:13;;;;;;;6.63;1.53;;;;;;;;;;5030807;28;20073;-61
2023/08/26 10:24:39;;;;;;;6.67;2.00;;;;;;;;;;5037394;28;20044;-61
2023/08/26 10:27:08;;;;;;;5.63;1.70;;;;;;;;;;5033012;28;20530;-61
2023/08/26 10:29:36;;;;;;;11.60;2.17;;;;;;;;;;5051186;28;20529;-61
2023/08/26 10:32:18;;;;;;;5.37;1.57;;;;;;;;;;5049228;28;20041;-61
2023/08/26 10:34:57;;;;;;;4.93;1.50;;;;;;;;;;5033936;28;20150;-61
2023/08/26 10:37:24;;;;;;;8.90;2.57;;;;;;;;;;5030079;28;20072;-61
2023/08/26 10:39:51;;;;;;;6.90;1.70;;;;;;;;;;5030572;28;20411;-62
2023/08/26 10:42:18;;;;;;;5.70;1.60;;;;;;;;;;5030550;28;20052;-61
2023/08/26 10:44:48;;;;;;;4.57;1.30;;;;;;;;;;5029411;28;20045;-61
2023/08/26 10:47:32;;;;;;;5.27;1.40;;;;;;;;;;5035320;28;20399;-62
2023/08/26 10:50:18;;;;;;;5.60;1.47;;;;;;;;;;5048454;28;20075;-61
2023/08/26 10:52:44;;;;;;;5.60;1.03;;;;;;;;;;5038209;28;20055;-62
2023/08/26 10:55:22;;;;;;;5.80;1.40;;;;;;;;;;5029820;28;20048;-62
2023/08/26 10:58:01;;;;;;;3.00;1.00;;;;;;;;;;5030289;28;20064;-61
2023/08/26 11:00:27;;;;;;;4.87;1.13;;;;;;;;;;5039062;28;20055;-61
2023/08/26 11:02:54;;;;;;;4.83;1.77;;;;;;;;;;5034710;28;20337;-62
2023/08/26 11:05:21;;;;;;;8.27;1.40;;;;;;;;;;5032812;28;20056;-62
2023/08/26 11:07:47;;;;;;;4.60;1.20;;;;;;;;;;5034430;28;20044;-61
2023/08/26 11:10:25;;;;;;;4.33;1.40;;;;;;;;;;5049770;28;20053;-62
2023/08/26 11:12:52;;;;;;;3.67;1.33;;;;;;;;;;5029372;28;20041;-62
2023/08/26 11:15:18;;;;;;;3.03;0.93;;;;;;;;;;5046782;28;20072;-62
2023/08/26 11:17:44;;;;;;;3.90;1.10;;;;;;;;;;5038703;28;20041;-61
2023/08/26 11:20:10;;;;;;;3.70;0.97;;;;;;;;;;5030078;28;20057;-61
2023/08/26 11:22:36;;;;;;;3.83;0.90;;;;;;;;;;5030343;28;20037;-61
2023/08/26 11:25:03;;;;;;;2.30;1.03;;;;;;;;;;5029857;28;20511;-62
2023/08/26 11:27:29;;;;;;;3.70;0.90;;;;;;;;;;5043177;28;20052;-61
2023/08/26 11:29:55;;;;;;;2.17;0.80;;;;;;;;;;5039286;28;20046;-62
2023/08/26 11:32:23;;;;;;;5.57;0.95;;;;;;;;;;5029917;28;20787;-62
2023/08/26 11:34:52;;;;;;;3.77;1.30;;;;;;;;;;5030016;28;20037;-62
2023/08/26 11:37:18;;;;;;;2.67;0.90;;;;;;;;;;5029174;28;20057;-62
2023/08/26 11:39:44;;;;;;;2.63;0.73;;;;;;;;;;5016631;28;20487;-62
2023/08/26 11:42:16;;;;;;;5.27;1.20;;;;;;;;;;5023302;28;20046;-62
2023/08/26 11:44:46;;;;;;;5.23;1.20;;;;;;;;;;5029266;28;20041;-62
2023/08/26 11:47:13;;;;;;;5.10;1.00;;;;;;;;;;5030199;28;20080;-62
2023/08/26 11:49:39;;;;;;;3.10;1.03;;;;;;;;;;5028845;28;20061;-62
2023/08/26 11:52:05;;;;;;;4.63;1.17;;;;;;;;;;5029570;28;20535;-62
2023/08/26 11:54:31;;;;;;;3.70;1.40;;;;;;;;;;5029357;28;20041;-62
2023/08/26 11:56:57;;;;;;;3.63;1.17;;;;;;;;;;5028376;28;20049;-62
2023/08/26 11:59:23;;;;;;;3.92;1.50;;;;;;;;;;5027584;28;20049;-62
2023/08/26 12:01:49;;;;;;;3.08;0.85;;;;;;;;;;5027527;28;20099;-62
2023/08/26 12:04:16;;;;;;;3.92;1.15;;;;;;;;;;5027288;28;20041;-62
2023/08/26 12:06:42;;;;;;;3.63;1.63;;;;;;;;;;5027390;28;20046;-62
2023/08/26 12:09:08;;;;;;;3.20;1.02;;;;;;;;;;5027773;28;20041;-62
2023/08/26 12:11:34;;;;;;;5.13;1.40;;;;;;;;;;5028060;28;20038;-62
2023/08/26 12:14:01;;;;;;;4.00;1.35;;;;;;;;;;5028979;28;20092;-62
2023/08/26 12:16:33;;;;;;;3.65;1.02;;;;;;;;;;5028808;28;20075;-62
2023/08/26 12:18:59;;;;;;;;;;;;;;;;;;5029726;28;20124;-62
2023/08/26 12:21:30;;;;;;;3.33;1.00;;;;;;;;;;5029436;28;20868;-62
2023/08/26 12:23:56;;;;;;;2.55;1.00;;;;;;;;;;5028750;28;20064;-62
2023/08/26 12:26:24;;;;;;;4.80;1.23;;;;;;;;;;5028986;28;20179;-62
2023/08/26 12:28:50;;;;;;;2.03;0.90;;;;;;;;;;5028726;28;20046;-62
2023/08/26 12:31:17;;;;;;;2.38;1.00;;;;;;;;;;5028380;28;20073;-62
2023/08/26 12:33:43;;;;;;;5.75;1.00;;;;;;;;;;5027712;28;20104;-62
2023/08/26 12:36:09;;;;;;;3.90;1.33;;;;;;;;;;5019759;28;20524;-62
2023/08/26 12:38:35;;;;;;;3.15;1.10;;;;;;;;;;5030006;28;20414;-62
2023/08/26 12:41:01;;;;;;;2.63;1.30;;;;;;;;;;5034154;28;20045;-63
2023/08/26 12:43:27;;;;;;;3.90;1.70;;;;;;;;;;5046259;28;20064;-62
2023/08/26 12:45:54;;;;;;;2.77;1.87;;;;;;;;;;5047840;28;20036;-62
2023/08/26 12:48:20;;;;;;;4.03;1.55;;;;;;;;;;5048615;28;20055;-62
2023/08/26 12:50:45;;;;;;;3.53;1.50;;;;;;;;;;5047732;28;20049;-62
2023/08/26 12:53:11;;;;;;;5.22;1.75;;;;;;;;;;5048553;28;20411;-62
2023/08/26 12:55:37;;;;;;;3.47;1.48;;;;;;;;;;5048107;28;20558;-63
2023/08/26 12:58:05;;;;;;;4.03;1.70;;;;;;;;;;5047955;28;20090;-62
2023/08/26 13:00:31;;;;;;;3.85;2.10;;;;;;;;;;5047429;28;20048;-63
2023/08/26 13:02:57;;;;;;;2.35;1.33;;;;;;;;;;5028234;28;20042;-63
2023/08/26 13:05:23;;;;;;;2.83;1.40;;;;;;;;;;5028041;28;20167;-63
2023/08/26 13:07:50;;;;;;;2.75;1.77;;;;;;;;;;5028139;28;20132;-62
2023/08/26 13:10:16;;;;;;;3.47;1.75;;;;;;;;;;5028456;28;20053;-63
2023/08/26 13:12:42;;;;;;;3.17;1.80;;;;;;;;;;5027641;28;20041;-62
2023/08/26 13:15:09;;;;;;;2.45;1.40;;;;;;;;;;5026470;28;20087;-63
2023/08/26 13:17:35;;;;;;;3.17;1.80;;;;;;;;;;5027816;28;20038;-62
2023/08/26 13:20:01;;;;;;;4.00;1.70;;;;;;;;;;5027947;28;20061;-62
2023/08/26 13:22:27;;;;;;;2.95;1.90;;;;;;;;;;5028163;28;20049;-62
2023/08/26 13:24:55;;;;;;;5.68;1.77;;;;;;;;;;5027597;28;20042;-62
2023/08/26 13:27:21;;;;;;;3.72;1.98;;;;;;;;;;5027474;28;20052;-63
2023/08/26 13:29:47;;;;;;;3.55;1.90;;;;;;;;;;5027669;28;20038;-63
2023/08/26 13:32:13;;;;;;;3.00;1.80;;;;;;;;;;5028118;28;20123;-63
2023/08/26 13:34:39;;;;;;;5.00;1.85;;;;;;;;;;5027780;28;20498;-63
2023/08/26 13:37:05;;;;;;;4.07;1.70;;;;;;;;;;5026737;28;20110;-63
2023/08/26 13:39:31;;;;;;;3.47;1.58;;;;;;;;;;5027941;28;20060;-63
2023/08/26 13:41:57;;;;;;;4.90;1.63;;;;;;;;;;5027282;28;20042;-63
2023/08/26 13:44:23;;;;;;;3.67;1.77;;;;;;;;;;5028124;28;20183;-63
2023/08/26 13:46:49;;;;;;;5.88;2.15;;;;;;;;;;5027635;28;20045;-63
2023/08/26 13:49:15;;;;;;;2.42;1.15;;;;;;;;;;5008566;28;20038;-63
2023/08/26 13:51:41;;;;;;;3.65;1.30;;;;;;;;;;5007791;28;20046;-63
2023/08/26 13:54:07;;;;;;;2.95;1.40;;;;;;;;;;5028606;28;20048;-63
2023/08/26 13:56:33;;;;;;;5.93;1.40;;;;;;;;;;5031616;28;20104;-62
2023/08/26 13:59:00;;;;;;;3.10;1.10;;;;;;;;;;5031330;28;20059;-63
2023/08/26 14:01:27;;;;;;;3.72;1.05;;;;;;;;;;5031826;28;20424;-63
2023/08/26 14:03:56;;;;;;;3.50;1.38;;;;;;;;;;5031957;28;20183;-63
2023/08/26 14:06:22;;;;;;;2.95;1.02;;;;;;;;;;5031716;28;20041;-63
2023/08/26 14:08:48;;;;;;;2.75;1.15;;;;;;;;;;5031116;28;20060;-63
2023/08/26 14:11:14;;;;;;;3.40;1.02;;;;;;;;;;5031638;28;20041;-64
2023/08/26 14:13:40;;;;;;;3.58;1.08;;;;;;;;;;5025934;28;20038;-63
2023/08/26 14:16:07;;;;;;;2.35;0.90;;;;;;;;;;5012059;28;20042;-63
2023/08/26 14:18:32;;;;;;;3.60;1.10;;;;;;;;;;5019007;28;20049;-63
2023/08/26 14:21:00;;;;;;;2.90;0.90;;;;;;;;;;5030436;28;20468;-63
2023/08/26 14:23:26;;;;;;;2.37;1.10;;;;;;;;;;5031251;28;20092;-63
2023/08/26 14:25:52;;;;;;;8.10;1.20;;;;;;;;;;5030695;28;20041;-63